sensor_id;sensor_type;location;lat;lon;timestamp;pressure;altitude;pressure_sealevel;temperature;humidity
58769;BME280;44536;47.474;19.056;2023-01-28T00:02:25;100538.97;;;1.67;83.15
58769;BME280;44536;47.474;19.056;2023-01-28T00:05:28;100542.66;;;1.62;83.56
58769;BME280;44536;47.474;19.056;2023-01-28T00:08:31;100549.13;;;1.53;83.03
58769;BME280;44536;47.474;19.056;2023-01-28T00:11:35;100547.00;;;1.63;82.22
58769;BME280;44536;47.474;19.056;2023-01-28T00:14:37;100547.72;;;1.66;81.52
58769;BME280;44536;47.474;19.056;2023-01-28T00:17:39;100545.81;;;1.72;81.33
58769;BME280;44536;47.474;19.056;2023-01-28T00:20:41;100542.00;;;1.80;80.83
58769;BME280;44536;47.474;19.056;2023-01-28T00:23:51;100536.72;;;1.82;80.22
58769;BME280;44536;47.474;19.056;2023-01-28T00:26:54;100549.06;;;1.78;80.46
58769;BME280;44536;47.474;19.056;2023-01-28T00:29:56;100548.38;;;1.73;80.34
58769;BME280;44536;47.474;19.056;2023-01-28T00:32:58;100549.31;;;1.71;80.65
58769;BME280;44536;47.474;19.056;2023-01-28T00:36:02;100545.87;;;1.70;80.54
58769;BME280;44536;47.474;19.056;2023-01-28T00:39:05;100552.69;;;1.74;80.12
58769;BME280;44536;47.474;19.056;2023-01-28T00:42:08;100554.50;;;1.72;80.64
58769;BME280;44536;47.474;19.056;2023-01-28T00:45:11;100560.47;;;1.76;80.15
58769;BME280;44536;47.474;19.056;2023-01-28T00:48:14;100555.03;;;1.82;79.96
58769;BME280;44536;47.474;19.056;2023-01-28T00:51:17;100560.69;;;1.70;80.63
58769;BME280;44536;47.474;19.056;2023-01-28T00:54:23;100569.34;;;1.72;80.37
58769;BME280;44536;47.474;19.056;2023-01-28T00:57:25;100565.87;;;1.71;80.30
58769;BME280;44536;47.474;19.056;2023-01-28T01:00:27;100563.41;;;1.66;79.68
58769;BME280;44536;47.474;19.056;2023-01-28T01:03:30;100572.69;;;1.75;79.65
58769;BME280;44536;47.474;19.056;2023-01-28T01:06:34;100563.25;;;1.71;79.96
58769;BME280;44536;47.474;19.056;2023-01-28T01:09:37;100570.19;;;1.72;79.58
58769;BME280;44536;47.474;19.056;2023-01-28T01:12:39;100576.31;;;1.71;79.63
58769;BME280;44536;47.474;19.056;2023-01-28T01:15:42;100567.69;;;1.69;78.82
58769;BME280;44536;47.474;19.056;2023-01-28T01:18:44;100566.06;;;1.90;77.37
58769;BME280;44536;47.474;19.056;2023-01-28T01:21:46;100569.44;;;1.69;79.09
58769;BME280;44536;47.474;19.056;2023-01-28T01:24:52;100570.50;;;1.63;78.60
58769;BME280;44536;47.474;19.056;2023-01-28T01:27:55;100562.63;;;1.64;79.16
58769;BME280;44536;47.474;19.056;2023-01-28T01:31:01;100565.91;;;1.70;79.28
58769;BME280;44536;47.474;19.056;2023-01-28T01:34:03;100567.41;;;1.53;80.25
58769;BME280;44536;47.474;19.056;2023-01-28T01:37:06;100570.62;;;1.60;80.06
58769;BME280;44536;47.474;19.056;2023-01-28T01:40:11;100568.66;;;1.66;79.05
58769;BME280;44536;47.474;19.056;2023-01-28T01:43:19;100571.78;;;1.76;79.21
58769;BME280;44536;47.474;19.056;2023-01-28T01:46:35;100567.53;;;1.74;79.66
58769;BME280;44536;47.474;19.056;2023-01-28T01:49:39;100570.47;;;1.64;79.52
58769;BME280;44536;47.474;19.056;2023-01-28T01:52:42;100572.84;;;1.71;79.40
58769;BME280;44536;47.474;19.056;2023-01-28T01:55:47;100582.63;;;1.65;79.97
58769;BME280;44536;47.474;19.056;2023-01-28T01:58:52;100582.56;;;1.67;79.92
58769;BME280;44536;47.474;19.056;2023-01-28T02:01:57;100578.25;;;1.66;79.84
58769;BME280;44536;47.474;19.056;2023-01-28T02:05:05;100585.28;;;1.64;80.64
58769;BME280;44536;47.474;19.056;2023-01-28T02:08:08;100579.00;;;1.70;80.02
58769;BME280;44536;47.474;19.056;2023-01-28T02:11:27;100579.56;;;1.54;80.13
58769;BME280;44536;47.474;19.056;2023-01-28T02:14:34;100583.94;;;1.54;80.62
58769;BME280;44536;47.474;19.056;2023-01-28T02:17:38;100585.56;;;1.56;80.44
58769;BME280;44536;47.474;19.056;2023-01-28T02:31:14;100568.06;;;1.58;81.88
58769;BME280;44536;47.474;19.056;2023-01-28T02:34:24;100567.47;;;1.52;82.14
58769;BME280;44536;47.474;19.056;2023-01-28T02:37:38;100564.97;;;1.49;82.65
58769;BME280;44536;47.474;19.056;2023-01-28T02:40:45;100569.37;;;1.47;82.27
58769;BME280;44536;47.474;19.056;2023-01-28T02:44:06;100564.00;;;1.51;82.03
58769;BME280;44536;47.474;19.056;2023-01-28T02:47:12;100560.78;;;1.43;83.19
58769;BME280;44536;47.474;19.056;2023-01-28T02:50:48;100575.84;;;1.37;83.84
58769;BME280;44536;47.474;19.056;2023-01-28T02:53:59;100571.78;;;1.28;84.73
58769;BME280;44536;47.474;19.056;2023-01-28T03:03:59;100570.62;;;1.10;86.48
58769;BME280;44536;47.474;19.056;2023-01-28T03:07:06;100568.94;;;1.09;87.37
58769;BME280;44536;47.474;19.056;2023-01-28T03:10:13;100570.47;;;1.15;87.08
58769;BME280;44536;47.474;19.056;2023-01-28T03:13:18;100562.00;;;1.08;87.55
58769;BME280;44536;47.474;19.056;2023-01-28T03:16:40;100572.69;;;1.02;88.52
58769;BME280;44536;47.474;19.056;2023-01-28T03:20:02;100572.72;;;1.01;88.14
58769;BME280;44536;47.474;19.056;2023-01-28T03:23:30;100568.19;;;1.06;88.89
58769;BME280;44536;47.474;19.056;2023-01-28T03:27:01;100569.25;;;1.00;89.07
58769;BME280;44536;47.474;19.056;2023-01-28T03:30:36;100570.06;;;1.02;89.12
58769;BME280;44536;47.474;19.056;2023-01-28T03:34:00;100576.16;;;1.03;89.88
58769;BME280;44536;47.474;19.056;2023-01-28T03:37:22;100571.44;;;0.87;90.42
58769;BME280;44536;47.474;19.056;2023-01-28T03:40:25;100572.97;;;0.93;89.68
58769;BME280;44536;47.474;19.056;2023-01-28T03:43:30;100577.84;;;1.04;88.37
58769;BME280;44536;47.474;19.056;2023-01-28T03:46:32;100581.22;;;1.06;88.27
58769;BME280;44536;47.474;19.056;2023-01-28T03:49:39;100581.28;;;1.04;88.73
58769;BME280;44536;47.474;19.056;2023-01-28T03:52:42;100589.19;;;1.03;88.26
58769;BME280;44536;47.474;19.056;2023-01-28T03:55:47;100585.69;;;1.04;88.05
58769;BME280;44536;47.474;19.056;2023-01-28T03:58:50;100588.34;;;1.02;88.97
58769;BME280;44536;47.474;19.056;2023-01-28T04:01:58;100590.78;;;1.07;89.46
58769;BME280;44536;47.474;19.056;2023-01-28T04:05:02;100585.59;;;1.05;90.04
58769;BME280;44536;47.474;19.056;2023-01-28T04:08:09;100592.53;;;1.06;90.51
58769;BME280;44536;47.474;19.056;2023-01-28T04:11:14;100581.78;;;1.15;90.03
58769;BME280;44536;47.474;19.056;2023-01-28T04:14:21;100591.00;;;1.01;90.59
58769;BME280;44536;47.474;19.056;2023-01-28T04:17:24;100581.22;;;1.06;90.96
58769;BME280;44536;47.474;19.056;2023-01-28T04:20:26;100589.06;;;1.06;91.42
58769;BME280;44536;47.474;19.056;2023-01-28T04:23:29;100585.87;;;0.97;91.58
58769;BME280;44536;47.474;19.056;2023-01-28T04:26:32;100594.09;;;1.12;90.84
58769;BME280;44536;47.474;19.056;2023-01-28T04:29:34;100593.37;;;1.07;91.39
58769;BME280;44536;47.474;19.056;2023-01-28T04:32:40;100602.19;;;1.04;91.58
58769;BME280;44536;47.474;19.056;2023-01-28T04:35:42;100604.88;;;1.03;91.11
58769;BME280;44536;47.474;19.056;2023-01-28T04:38:44;100590.91;;;1.04;91.60
58769;BME280;44536;47.474;19.056;2023-01-28T04:41:48;100601.44;;;1.01;91.58
58769;BME280;44536;47.474;19.056;2023-01-28T04:44:51;100599.75;;;0.99;92.34
58769;BME280;44536;47.474;19.056;2023-01-28T04:47:54;100603.47;;;0.92;91.89
58769;BME280;44536;47.474;19.056;2023-01-28T04:50:56;100607.88;;;0.90;92.37
58769;BME280;44536;47.474;19.056;2023-01-28T04:53:59;100599.84;;;0.96;92.24
58769;BME280;44536;47.474;19.056;2023-01-28T04:57:02;100609.91;;;1.07;92.23
58769;BME280;44536;47.474;19.056;2023-01-28T05:00:05;100610.13;;;1.01;93.23
58769;BME280;44536;47.474;19.056;2023-01-28T05:03:08;100608.69;;;0.92;93.16
58769;BME280;44536;47.474;19.056;2023-01-28T05:06:11;100612.75;;;1.01;92.48
58769;BME280;44536;47.474;19.056;2023-01-28T05:09:13;100617.16;;;0.99;93.05
58769;BME280;44536;47.474;19.056;2023-01-28T05:12:15;100619.22;;;0.89;93.46
58769;BME280;44536;47.474;19.056;2023-01-28T05:15:19;100621.62;;;0.95;93.54
58769;BME280;44536;47.474;19.056;2023-01-28T05:18:22;100627.94;;;0.88;93.47
58769;BME280;44536;47.474;19.056;2023-01-28T05:21:25;100628.06;;;0.85;93.66
58769;BME280;44536;47.474;19.056;2023-01-28T05:24:28;100627.91;;;0.90;94.08
58769;BME280;44536;47.474;19.056;2023-01-28T05:27:30;100638.44;;;0.87;94.18
58769;BME280;44536;47.474;19.056;2023-01-28T05:30:33;100635.75;;;0.90;94.14
58769;BME280;44536;47.474;19.056;2023-01-28T05:33:36;100640.87;;;0.93;93.94
58769;BME280;44536;47.474;19.056;2023-01-28T05:36:39;100635.78;;;0.88;94.58
58769;BME280;44536;47.474;19.056;2023-01-28T05:39:43;100629.50;;;0.94;93.61
58769;BME280;44536;47.474;19.056;2023-01-28T05:42:46;100627.06;;;0.89;93.49
58769;BME280;44536;47.474;19.056;2023-01-28T05:45:49;100635.59;;;0.94;93.15
58769;BME280;44536;47.474;19.056;2023-01-28T05:48:52;100633.84;;;0.95;93.11
58769;BME280;44536;47.474;19.056;2023-01-28T05:51:57;100642.56;;;0.94;93.10
58769;BME280;44536;47.474;19.056;2023-01-28T05:55:00;100636.44;;;0.95;93.48
58769;BME280;44536;47.474;19.056;2023-01-28T05:58:02;100642.47;;;0.97;92.82
58769;BME280;44536;47.474;19.056;2023-01-28T06:01:05;100641.28;;;1.06;92.73
58769;BME280;44536;47.474;19.056;2023-01-28T06:04:09;100647.56;;;1.02;93.39
58769;BME280;44536;47.474;19.056;2023-01-28T06:07:13;100654.56;;;0.99;93.29
58769;BME280;44536;47.474;19.056;2023-01-28T06:10:18;100658.81;;;1.04;93.32
58769;BME280;44536;47.474;19.056;2023-01-28T06:13:20;100657.44;;;0.92;94.01
58769;BME280;44536;47.474;19.056;2023-01-28T06:16:25;100663.31;;;0.98;93.79
58769;BME280;44536;47.474;19.056;2023-01-28T06:19:27;100666.69;;;1.02;94.02
58769;BME280;44536;47.474;19.056;2023-01-28T06:22:30;100664.97;;;1.01;94.55
58769;BME280;44536;47.474;19.056;2023-01-28T06:25:32;100668.44;;;1.02;94.55
58769;BME280;44536;47.474;19.056;2023-01-28T06:28:36;100672.16;;;0.94;95.22
58769;BME280;44536;47.474;19.056;2023-01-28T06:31:38;100674.75;;;0.94;95.48
58769;BME280;44536;47.474;19.056;2023-01-28T06:34:40;100674.09;;;0.88;95.43
58769;BME280;44536;47.474;19.056;2023-01-28T06:37:43;100683.59;;;0.90;95.35
58769;BME280;44536;47.474;19.056;2023-01-28T06:40:50;100689.62;;;0.92;94.82
58769;BME280;44536;47.474;19.056;2023-01-28T06:43:53;100693.06;;;0.93;95.55
58769;BME280;44536;47.474;19.056;2023-01-28T06:46:55;100699.09;;;0.95;95.23
58769;BME280;44536;47.474;19.056;2023-01-28T06:49:57;100704.66;;;0.84;95.40
58769;BME280;44536;47.474;19.056;2023-01-28T06:53:00;100703.72;;;0.87;95.80
58769;BME280;44536;47.474;19.056;2023-01-28T06:56:02;100715.84;;;0.88;95.76
58769;BME280;44536;47.474;19.056;2023-01-28T06:59:05;100714.78;;;0.95;95.04
58769;BME280;44536;47.474;19.056;2023-01-28T07:02:10;100718.00;;;1.03;94.42
58769;BME280;44536;47.474;19.056;2023-01-28T07:05:12;100722.97;;;1.11;94.27
58769;BME280;44536;47.474;19.056;2023-01-28T07:08:15;100722.81;;;1.15;93.50
58769;BME280;44536;47.474;19.056;2023-01-28T07:11:17;100734.22;;;1.13;92.79
58769;BME280;44536;47.474;19.056;2023-01-28T07:14:19;100729.22;;;1.05;93.43
58769;BME280;44536;47.474;19.056;2023-01-28T07:17:22;100736.09;;;1.08;93.43
58769;BME280;44536;47.474;19.056;2023-01-28T07:20:25;100737.59;;;1.16;92.85
58769;BME280;44536;47.474;19.056;2023-01-28T07:23:27;100742.00;;;1.14;93.47
58769;BME280;44536;47.474;19.056;2023-01-28T07:26:30;100745.28;;;1.21;93.32
58769;BME280;44536;47.474;19.056;2023-01-28T07:29:33;100751.59;;;1.14;93.77
58769;BME280;44536;47.474;19.056;2023-01-28T07:32:35;100753.75;;;1.01;94.37
58769;BME280;44536;47.474;19.056;2023-01-28T07:35:38;100749.88;;;1.13;94.56
58769;BME280;44536;47.474;19.056;2023-01-28T07:38:40;100750.59;;;1.18;94.36
58769;BME280;44536;47.474;19.056;2023-01-28T07:41:42;100760.47;;;1.08;94.74
58769;BME280;44536;47.474;19.056;2023-01-28T07:44:45;100757.47;;;1.20;94.67
58769;BME280;44536;47.474;19.056;2023-01-28T07:47:58;100757.66;;;1.14;94.54
58769;BME280;44536;47.474;19.056;2023-01-28T07:51:00;100753.31;;;1.15;94.74
58769;BME280;44536;47.474;19.056;2023-01-28T07:54:03;100750.78;;;1.12;94.89
58769;BME280;44536;47.474;19.056;2023-01-28T07:57:08;100758.53;;;1.15;94.65
58769;BME280;44536;47.474;19.056;2023-01-28T08:00:11;100768.22;;;1.11;95.65
58769;BME280;44536;47.474;19.056;2023-01-28T08:03:14;100770.81;;;1.11;95.61
58769;BME280;44536;47.474;19.056;2023-01-28T08:06:17;100765.22;;;1.23;95.33
58769;BME280;44536;47.474;19.056;2023-01-28T08:09:19;100771.00;;;1.05;95.74
58769;BME280;44536;47.474;19.056;2023-01-28T08:12:21;100779.66;;;1.07;97.18
58769;BME280;44536;47.474;19.056;2023-01-28T08:15:24;100765.69;;;1.08;96.40
58769;BME280;44536;47.474;19.056;2023-01-28T08:18:26;100770.41;;;1.25;96.71
58769;BME280;44536;47.474;19.056;2023-01-28T08:21:29;100772.81;;;1.31;96.33
58769;BME280;44536;47.474;19.056;2023-01-28T08:24:31;100777.75;;;1.40;96.03
58769;BME280;44536;47.474;19.056;2023-01-28T08:27:34;100774.91;;;1.48;95.86
58769;BME280;44536;47.474;19.056;2023-01-28T08:30:37;100772.81;;;1.57;95.60
58769;BME280;44536;47.474;19.056;2023-01-28T08:33:40;100783.50;;;1.78;94.80
58769;BME280;44536;47.474;19.056;2023-01-28T08:36:42;100783.63;;;1.99;94.74
58769;BME280;44536;47.474;19.056;2023-01-28T08:39:45;100785.59;;;2.18;93.22
58769;BME280;44536;47.474;19.056;2023-01-28T08:42:51;100791.25;;;2.30;90.93
58769;BME280;44536;47.474;19.056;2023-01-28T08:45:54;100786.72;;;2.36;91.80
58769;BME280;44536;47.474;19.056;2023-01-28T08:48:56;100792.28;;;2.26;90.54
58769;BME280;44536;47.474;19.056;2023-01-28T08:51:59;100794.78;;;2.05;93.46
58769;BME280;44536;47.474;19.056;2023-01-28T08:55:02;100787.91;;;2.02;91.95
58769;BME280;44536;47.474;19.056;2023-01-28T08:58:06;100793.66;;;2.12;91.02
58769;BME280;44536;47.474;19.056;2023-01-28T09:01:08;100801.09;;;2.24;90.74
58769;BME280;44536;47.474;19.056;2023-01-28T09:04:10;100803.91;;;2.43;91.37
58769;BME280;44536;47.474;19.056;2023-01-28T09:07:13;100806.03;;;2.56;90.87
58769;BME280;44536;47.474;19.056;2023-01-28T09:10:15;100807.88;;;2.29;89.49
58769;BME280;44536;47.474;19.056;2023-01-28T09:13:18;100806.84;;;2.09;91.81
58769;BME280;44536;47.474;19.056;2023-01-28T09:16:21;100814.22;;;2.22;90.75
58769;BME280;44536;47.474;19.056;2023-01-28T09:19:23;100812.69;;;2.42;91.99
58769;BME280;44536;47.474;19.056;2023-01-28T09:22:26;100813.37;;;2.47;90.90
58769;BME280;44536;47.474;19.056;2023-01-28T09:25:29;100816.00;;;2.70;87.80
58769;BME280;44536;47.474;19.056;2023-01-28T09:28:32;100817.25;;;2.83;88.44
58769;BME280;44536;47.474;19.056;2023-01-28T09:31:34;100825.22;;;2.80;89.75
58769;BME280;44536;47.474;19.056;2023-01-28T09:34:37;100820.44;;;2.91;90.25
58769;BME280;44536;47.474;19.056;2023-01-28T09:37:40;100826.50;;;3.15;88.08
58769;BME280;44536;47.474;19.056;2023-01-28T09:40:43;100830.31;;;2.85;89.19
58769;BME280;44536;47.474;19.056;2023-01-28T09:44:14;100819.16;;;3.03;89.67
58769;BME280;44536;47.474;19.056;2023-01-28T09:47:36;100826.66;;;2.89;90.11
58769;BME280;44536;47.474;19.056;2023-01-28T09:50:43;100813.97;;;3.02;88.92
58769;BME280;44536;47.474;19.056;2023-01-28T09:53:51;100817.84;;;2.91;90.35
58769;BME280;44536;47.474;19.056;2023-01-28T09:57:03;100821.88;;;3.00;89.55
58769;BME280;44536;47.474;19.056;2023-01-28T10:00:13;100809.13;;;3.13;88.92
58769;BME280;44536;47.474;19.056;2023-01-28T10:10:16;100810.47;;;3.46;87.13
58769;BME280;44536;47.474;19.056;2023-01-28T10:23:27;100810.31;;;4.33;82.90
58769;BME280;44536;47.474;19.056;2023-01-28T10:26:35;100810.75;;;4.43;82.26
58769;BME280;44536;47.474;19.056;2023-01-28T10:29:39;100811.53;;;4.65;81.68
58769;BME280;44536;47.474;19.056;2023-01-28T10:35:55;100808.38;;;4.96;78.94
58769;BME280;44536;47.474;19.056;2023-01-28T10:38:57;100805.31;;;5.06;79.26
58769;BME280;44536;47.474;19.056;2023-01-28T10:42:00;100800.97;;;4.86;79.21
58769;BME280;44536;47.474;19.056;2023-01-28T10:45:14;100811.75;;;4.80;77.82
58769;BME280;44536;47.474;19.056;2023-01-28T10:48:23;100809.97;;;4.41;78.07
58769;BME280;44536;47.474;19.056;2023-01-28T10:51:43;100808.12;;;4.63;77.67
58769;BME280;44536;47.474;19.056;2023-01-28T10:54:46;100806.41;;;4.62;77.15
58769;BME280;44536;47.474;19.056;2023-01-28T10:57:48;100808.06;;;4.65;77.21
58769;BME280;44536;47.474;19.056;2023-01-28T11:00:53;100805.56;;;4.62;77.58
58769;BME280;44536;47.474;19.056;2023-01-28T11:03:57;100803.06;;;4.59;78.01
58769;BME280;44536;47.474;19.056;2023-01-28T11:07:04;100801.44;;;4.56;75.41
58769;BME280;44536;47.474;19.056;2023-01-28T11:10:29;100807.34;;;4.41;77.69
58769;BME280;44536;47.474;19.056;2023-01-28T11:13:33;100810.75;;;4.43;75.99
58769;BME280;44536;47.474;19.056;2023-01-28T11:16:38;100799.78;;;4.54;76.25
58769;BME280;44536;47.474;19.056;2023-01-28T11:19:41;100803.72;;;4.64;76.40
58769;BME280;44536;47.474;19.056;2023-01-28T11:22:44;100799.87;;;4.32;79.67
58769;BME280;44536;47.474;19.056;2023-01-28T11:25:46;100801.91;;;4.25;79.60
58769;BME280;44536;47.474;19.056;2023-01-28T11:28:49;100795.53;;;4.51;77.98
58769;BME280;44536;47.474;19.056;2023-01-28T11:31:52;100794.62;;;4.52;75.57
58769;BME280;44536;47.474;19.056;2023-01-28T11:34:56;100788.44;;;4.53;77.85
58769;BME280;44536;47.474;19.056;2023-01-28T11:37:59;100781.34;;;4.74;76.78
58769;BME280;44536;47.474;19.056;2023-01-28T11:41:02;100788.75;;;4.66;75.14
58769;BME280;44536;47.474;19.056;2023-01-28T11:44:17;100782.41;;;4.51;75.91
58769;BME280;44536;47.474;19.056;2023-01-28T11:50:57;100783.53;;;4.46;77.14
58769;BME280;44536;47.474;19.056;2023-01-28T11:57:43;100777.00;;;4.54;71.83
58769;BME280;44536;47.474;19.056;2023-01-28T12:01:01;100772.75;;;4.31;71.17
58769;BME280;44536;47.474;19.056;2023-01-28T12:04:17;100772.13;;;4.26;71.75
58769;BME280;44536;47.474;19.056;2023-01-28T12:07:44;100778.66;;;4.16;71.88
58769;BME280;44536;47.474;19.056;2023-01-28T12:15:25;100774.78;;;4.45;70.45
58769;BME280;44536;47.474;19.056;2023-01-28T12:28:37;100776.19;;;4.91;68.08
58769;BME280;44536;47.474;19.056;2023-01-28T12:38:14;100766.50;;;4.73;68.85
58769;BME280;44536;47.474;19.056;2023-01-28T12:41:21;100766.03;;;4.65;69.08
58769;BME280;44536;47.474;19.056;2023-01-28T12:44:31;100770.50;;;4.63;68.84
58769;BME280;44536;47.474;19.056;2023-01-28T12:47:36;100770.00;;;4.74;68.40
58769;BME280;44536;47.474;19.056;2023-01-28T12:50:45;100779.97;;;4.47;70.03
58769;BME280;44536;47.474;19.056;2023-01-28T12:54:19;100772.31;;;4.42;68.72
58769;BME280;44536;47.474;19.056;2023-01-28T12:57:29;100781.00;;;4.04;70.48
58769;BME280;44536;47.474;19.056;2023-01-28T13:00:35;100769.34;;;4.29;68.31
58769;BME280;44536;47.474;19.056;2023-01-28T13:03:42;100772.75;;;4.52;67.18
58769;BME280;44536;47.474;19.056;2023-01-28T13:10:23;100786.66;;;4.54;68.27
58769;BME280;44536;47.474;19.056;2023-01-28T13:13:38;100781.34;;;4.74;68.43
58769;BME280;44536;47.474;19.056;2023-01-28T13:16:43;100790.66;;;4.62;67.87
58769;BME280;44536;47.474;19.056;2023-01-28T13:19:45;100800.53;;;4.57;66.59
58769;BME280;44536;47.474;19.056;2023-01-28T13:23:00;100798.03;;;4.34;67.78
58769;BME280;44536;47.474;19.056;2023-01-28T13:32:30;100792.13;;;3.88;70.07
58769;BME280;44536;47.474;19.056;2023-01-28T13:35:38;100798.47;;;3.83;69.66
58769;BME280;44536;47.474;19.056;2023-01-28T13:38:42;100800.47;;;3.98;70.50
58769;BME280;44536;47.474;19.056;2023-01-28T13:41:49;100794.97;;;4.04;71.24
58769;BME280;44536;47.474;19.056;2023-01-28T13:44:52;100802.94;;;4.21;69.47
58769;BME280;44536;47.474;19.056;2023-01-28T13:48:17;100801.50;;;4.35;68.35
58769;BME280;44536;47.474;19.056;2023-01-28T13:51:32;100814.03;;;4.28;68.92
58769;BME280;44536;47.474;19.056;2023-01-28T13:55:20;100811.34;;;4.50;67.31
58769;BME280;44536;47.474;19.056;2023-01-28T14:12:04;100828.81;;;4.51;67.01
58769;BME280;44536;47.474;19.056;2023-01-28T14:18:38;100835.78;;;4.11;68.90
58769;BME280;44536;47.474;19.056;2023-01-28T14:21:41;100836.16;;;4.02;70.43
58769;BME280;44536;47.474;19.056;2023-01-28T14:24:45;100836.94;;;4.04;71.71
58769;BME280;44536;47.474;19.056;2023-01-28T14:27:51;100836.66;;;3.90;73.91
58769;BME280;44536;47.474;19.056;2023-01-28T14:31:02;100843.84;;;3.85;75.20
58769;BME280;44536;47.474;19.056;2023-01-28T14:37:27;100847.72;;;3.54;78.98
58769;BME280;44536;47.474;19.056;2023-01-28T14:40:36;100848.41;;;3.59;79.57
58769;BME280;44536;47.474;19.056;2023-01-28T14:43:40;100842.09;;;3.42;80.42
58769;BME280;44536;47.474;19.056;2023-01-28T14:46:51;100846.59;;;3.38;80.39
58769;BME280;44536;47.474;19.056;2023-01-28T14:50:19;100855.56;;;3.32;81.32
58769;BME280;44536;47.474;19.056;2023-01-28T14:53:46;100854.94;;;3.26;81.79
58769;BME280;44536;47.474;19.056;2023-01-28T15:00:26;100864.06;;;3.16;82.42
58769;BME280;44536;47.474;19.056;2023-01-28T15:03:29;100866.72;;;3.14;83.54
58769;BME280;44536;47.474;19.056;2023-01-28T15:06:35;100856.44;;;3.10;83.59
58769;BME280;44536;47.474;19.056;2023-01-28T15:09:37;100863.06;;;2.96;83.81
58769;BME280;44536;47.474;19.056;2023-01-28T15:12:42;100870.09;;;2.94;84.11
58769;BME280;44536;47.474;19.056;2023-01-28T15:15:47;100874.66;;;2.89;85.09
58769;BME280;44536;47.474;19.056;2023-01-28T15:18:50;100881.13;;;2.79;85.27
58769;BME280;44536;47.474;19.056;2023-01-28T15:21:55;100876.00;;;2.76;85.81
58769;BME280;44536;47.474;19.056;2023-01-28T15:24:57;100880.50;;;2.73;85.79
58769;BME280;44536;47.474;19.056;2023-01-28T15:28:00;100885.72;;;2.73;87.20
58769;BME280;44536;47.474;19.056;2023-01-28T15:31:03;100898.75;;;2.74;85.87
58769;BME280;44536;47.474;19.056;2023-01-28T15:34:16;100895.19;;;2.77;85.70
58769;BME280;44536;47.474;19.056;2023-01-28T15:37:19;100900.41;;;2.77;85.58
58769;BME280;44536;47.474;19.056;2023-01-28T15:40:23;100904.31;;;2.65;85.34
58769;BME280;44536;47.474;19.056;2023-01-28T15:43:29;100907.91;;;2.62;86.85
58769;BME280;44536;47.474;19.056;2023-01-28T15:46:32;100905.47;;;2.58;87.10
58769;BME280;44536;47.474;19.056;2023-01-28T15:49:36;100900.66;;;2.46;88.07
58769;BME280;44536;47.474;19.056;2023-01-28T15:52:43;100911.16;;;2.44;89.28
58769;BME280;44536;47.474;19.056;2023-01-28T15:55:47;100919.06;;;2.43;88.68
58769;BME280;44536;47.474;19.056;2023-01-28T15:58:50;100920.03;;;2.40;88.50
58769;BME280;44536;47.474;19.056;2023-01-28T16:05:27;100925.25;;;2.40;88.83
58769;BME280;44536;47.474;19.056;2023-01-28T16:08:38;100933.16;;;2.39;89.24
58769;BME280;44536;47.474;19.056;2023-01-28T16:11:41;100938.50;;;2.36;88.96
58769;BME280;44536;47.474;19.056;2023-01-28T16:14:52;100940.84;;;2.17;90.10
58769;BME280;44536;47.474;19.056;2023-01-28T16:17:55;100940.84;;;2.17;90.56
58769;BME280;44536;47.474;19.056;2023-01-28T16:20:58;100948.69;;;2.17;90.99
58769;BME280;44536;47.474;19.056;2023-01-28T16:27:25;100959.53;;;2.06;91.66
58769;BME280;44536;47.474;19.056;2023-01-28T16:30:28;100958.06;;;1.97;92.10
58769;BME280;44536;47.474;19.056;2023-01-28T16:33:31;100958.00;;;1.99;92.77
58769;BME280;44536;47.474;19.056;2023-01-28T16:36:33;100958.09;;;1.96;93.00
58769;BME280;44536;47.474;19.056;2023-01-28T16:39:36;100964.28;;;1.93;93.34
58769;BME280;44536;47.474;19.056;2023-01-28T16:42:38;100966.22;;;1.87;93.50
58769;BME280;44536;47.474;19.056;2023-01-28T16:45:41;100960.31;;;1.80;94.31
58769;BME280;44536;47.474;19.056;2023-01-28T16:48:44;100976.72;;;1.85;94.22
58769;BME280;44536;47.474;19.056;2023-01-28T16:51:46;100968.75;;;1.90;94.17
58769;BME280;44536;47.474;19.056;2023-01-28T16:54:49;100972.37;;;1.86;93.98
58769;BME280;44536;47.474;19.056;2023-01-28T16:57:55;100968.78;;;1.88;93.67
58769;BME280;44536;47.474;19.056;2023-01-28T17:00:58;100969.88;;;1.81;94.34
58769;BME280;44536;47.474;19.056;2023-01-28T17:04:00;100971.47;;;1.87;93.12
58769;BME280;44536;47.474;19.056;2023-01-28T17:07:05;100968.72;;;1.91;93.20
58769;BME280;44536;47.474;19.056;2023-01-28T17:10:09;100972.37;;;1.86;93.30
58769;BME280;44536;47.474;19.056;2023-01-28T17:13:11;100978.12;;;1.97;92.56
58769;BME280;44536;47.474;19.056;2023-01-28T17:16:13;100977.62;;;1.84;93.27
58769;BME280;44536;47.474;19.056;2023-01-28T17:19:16;100983.84;;;1.80;92.70
58769;BME280;44536;47.474;19.056;2023-01-28T17:22:19;100984.19;;;1.70;93.10
58769;BME280;44536;47.474;19.056;2023-01-28T17:25:22;100996.25;;;1.74;92.81
58769;BME280;44536;47.474;19.056;2023-01-28T17:28:24;100998.88;;;1.74;93.07
58769;BME280;44536;47.474;19.056;2023-01-28T17:31:26;101003.47;;;1.65;92.49
58769;BME280;44536;47.474;19.056;2023-01-28T17:34:29;100995.66;;;1.64;92.52
58769;BME280;44536;47.474;19.056;2023-01-28T17:37:32;100998.31;;;1.62;92.05
58769;BME280;44536;47.474;19.056;2023-01-28T17:40:34;101007.16;;;1.58;92.23
58769;BME280;44536;47.474;19.056;2023-01-28T17:43:37;101019.56;;;1.52;93.06
58769;BME280;44536;47.474;19.056;2023-01-28T17:46:40;101015.19;;;1.52;93.31
58769;BME280;44536;47.474;19.056;2023-01-28T17:49:42;101025.69;;;1.51;92.92
58769;BME280;44536;47.474;19.056;2023-01-28T17:52:44;101027.44;;;1.50;93.29
58769;BME280;44536;47.474;19.056;2023-01-28T17:55:47;101021.25;;;1.54;92.71
58769;BME280;44536;47.474;19.056;2023-01-28T17:58:54;101025.78;;;1.48;93.37